createdAt,value
2023-02-14T00:01:56.925Z,77.59
2023-02-14T00:04:25.987Z,77.79
2023-02-14T00:06:54.392Z,78.16
2023-02-14T00:09:22.863Z,78.18
2023-02-14T00:11:55.043Z,78.30
2023-02-14T00:14:56.588Z,78.47
2023-02-14T00:17:25.174Z,78.57
2023-02-14T00:19:53.586Z,78.53
2023-02-14T00:22:22.138Z,78.50
2023-02-14T00:24:51.237Z,78.68
2023-02-14T00:27:19.718Z,78.97
2023-02-14T00:29:48.355Z,79.20
2023-02-14T00:32:16.787Z,79.23
2023-02-14T00:34:46.611Z,79.18
2023-02-14T00:37:16.311Z,79.25
2023-02-14T00:39:44.796Z,79.13
2023-02-14T00:42:13.992Z,79.27
2023-02-14T00:44:42.578Z,79.18
2023-02-14T00:47:10.959Z,79.26
2023-02-14T00:49:39.381Z,79.45
2023-02-14T00:52:07.829Z,79.40
2023-02-14T00:54:36.507Z,79.63
2023-02-14T00:57:05.402Z,79.57
2023-02-14T00:59:33.992Z,79.63
2023-02-14T01:02:05.302Z,79.58
2023-02-14T01:04:34.467Z,79.75
2023-02-14T01:07:03.426Z,79.90
2023-02-14T01:09:31.808Z,79.77
2023-02-14T01:12:03.976Z,79.71
2023-02-14T01:14:32.765Z,79.63
2023-02-14T01:17:02.987Z,79.59
2023-02-14T01:19:31.785Z,79.41
2023-02-14T01:22:01.694Z,79.41
2023-02-14T01:24:30.586Z,79.53
2023-02-14T01:27:01.839Z,79.62
2023-02-14T01:29:30.562Z,79.48
2023-02-14T01:31:59.291Z,79.33
2023-02-14T01:34:48.276Z,79.20
2023-02-14T01:37:16.654Z,79.18
2023-02-14T01:39:46.060Z,79.20
2023-02-14T01:42:16.122Z,79.13
2023-02-14T01:44:50.403Z,79.08
2023-02-14T01:47:19.086Z,79.06
2023-02-14T01:49:50.028Z,79.03
2023-02-14T01:52:25.047Z,78.98
2023-02-14T01:54:56.617Z,78.80
2023-02-14T01:57:25.066Z,78.83
2023-02-14T01:59:55.943Z,78.79
2023-02-14T02:02:24.840Z,78.66
2023-02-14T02:04:54.391Z,78.58
2023-02-14T02:07:25.020Z,78.42
2023-02-14T02:09:58.586Z,78.13
2023-02-14T02:12:29.796Z,78.07
2023-02-14T02:15:00.658Z,78.08
2023-02-14T02:18:12.157Z,77.64
2023-02-14T02:21:02.755Z,77.46
2023-02-14T02:23:34.511Z,77.46
2023-02-14T02:26:19.075Z,77.52
2023-02-14T02:28:50.522Z,77.19
2023-02-14T02:31:47.294Z,77.03
2023-02-14T02:34:30.817Z,76.97
2023-02-14T02:37:10.655Z,76.92
2023-02-14T02:40:06.586Z,76.79
2023-02-14T02:43:13.668Z,76.69
2023-02-14T02:46:17.944Z,76.49
2023-02-14T02:48:59.988Z,76.57
2023-02-14T02:52:07.109Z,76.45
2023-02-14T02:54:38.225Z,76.54
2023-02-14T02:57:10.698Z,76.42
2023-02-14T02:59:40.731Z,76.24
2023-02-14T03:02:09.138Z,76.15
2023-02-14T03:04:55.398Z,76.13
2023-02-14T03:07:36.889Z,76.18
2023-02-14T03:10:17.374Z,76.16
2023-02-14T03:13:09.610Z,76.32
2023-02-14T03:15:53.388Z,76.10
2023-02-14T03:18:34.714Z,76.36
2023-02-14T03:21:14.462Z,76.54
2023-02-14T03:24:05.474Z,76.25
2023-02-14T03:26:43.685Z,76.20
2023-02-14T03:29:14.139Z,76.36
2023-02-14T03:32:04.519Z,76.42
2023-02-14T03:35:07.912Z,76.38
2023-02-14T03:37:51.755Z,76.40
2023-02-14T03:40:37.132Z,76.84
2023-02-14T03:43:17.501Z,77.20
2023-02-14T03:45:52.562Z,77.86
2023-02-14T03:48:21.924Z,78.31
2023-02-14T03:50:50.696Z,78.60
2023-02-14T03:53:21.971Z,79.01
2023-02-14T03:56:09.093Z,79.34
2023-02-14T03:58:39.542Z,79.98
2023-02-14T04:01:16.646Z,80.32
2023-02-14T04:03:45.030Z,80.38
2023-02-14T04:06:13.775Z,80.34
2023-02-14T04:08:42.664Z,80.41
2023-02-14T04:11:11.053Z,80.65
2023-02-14T04:13:40.452Z,80.88
2023-02-14T04:16:10.132Z,80.95
2023-02-14T04:18:57.488Z,80.95
2023-02-14T04:21:26.074Z,80.99
2023-02-14T04:23:54.448Z,81.31
2023-02-14T04:26:23.345Z,81.16
2023-02-14T04:28:52.133Z,80.78
2023-02-14T04:31:20.623Z,80.81
2023-02-14T04:33:51.488Z,80.75
2023-02-14T04:36:19.830Z,80.73
2023-02-14T04:38:48.433Z,80.67
2023-02-14T04:41:17.000Z,80.72
2023-02-14T04:43:45.483Z,80.69
2023-02-14T04:46:14.435Z,80.62
2023-02-14T04:48:42.857Z,80.77
2023-02-14T04:51:11.236Z,81.00
2023-02-14T04:53:40.663Z,81.06
2023-02-14T04:56:14.349Z,80.93
2023-02-14T04:58:42.521Z,80.74
2023-02-14T05:01:10.949Z,80.92
2023-02-14T05:03:39.384Z,80.89
2023-02-14T05:06:08.384Z,80.72
2023-02-14T05:08:36.681Z,80.37
2023-02-14T05:11:05.360Z,80.16
2023-02-14T05:13:33.925Z,80.32
2023-02-14T05:16:02.885Z,80.20
2023-02-14T05:18:31.823Z,80.13
2023-02-14T05:21:00.482Z,79.92
2023-02-14T05:23:29.497Z,79.94
2023-02-14T05:25:57.876Z,80.13
2023-02-14T05:28:26.257Z,80.28
2023-02-14T05:30:55.186Z,80.36
2023-02-14T05:33:24.759Z,80.48
2023-02-14T05:35:53.239Z,80.34
2023-02-14T05:38:24.792Z,80.16
2023-02-14T05:40:53.171Z,80.07
2023-02-14T05:43:21.657Z,79.81
2023-02-14T05:45:51.586Z,79.65
2023-02-14T05:48:20.054Z,79.26
2023-02-14T05:50:48.559Z,78.77
2023-02-14T05:53:17.233Z,78.71
2023-02-14T05:55:45.606Z,78.65
2023-02-14T05:58:14.092Z,78.51
2023-02-14T06:00:42.592Z,78.40
2023-02-14T06:03:11.366Z,78.08
2023-02-14T06:05:40.568Z,77.81
2023-02-14T06:08:09.457Z,77.95
2023-02-14T06:10:38.563Z,77.87
2023-02-14T06:13:12.158Z,77.69
2023-02-14T06:15:41.869Z,77.50
2023-02-14T06:18:10.404Z,77.48
2023-02-14T06:20:38.958Z,77.19
2023-02-14T06:23:07.438Z,77.39
2023-02-14T06:25:35.823Z,77.25
2023-02-14T06:28:04.215Z,77.48
2023-02-14T06:30:34.100Z,77.11
2023-02-14T06:33:02.807Z,77.15
2023-02-14T06:35:35.985Z,76.80
2023-02-14T06:38:04.361Z,76.79
2023-02-14T06:40:32.739Z,76.53
2023-02-14T06:43:01.456Z,76.26
2023-02-14T06:45:29.920Z,76.24
2023-02-14T06:48:00.369Z,76.07
2023-02-14T06:50:28.820Z,75.67
2023-02-14T06:52:57.205Z,75.44
2023-02-14T06:55:25.991Z,75.27
2023-02-14T06:57:56.318Z,75.31
2023-02-14T07:00:24.700Z,75.25
2023-02-14T07:02:54.039Z,74.80
2023-02-14T07:05:22.791Z,74.64
2023-02-14T07:07:52.705Z,74.30
2023-02-14T07:10:20.984Z,73.84
2023-02-14T07:12:49.468Z,73.80
2023-02-14T07:15:18.052Z,73.56
2023-02-14T07:17:46.444Z,73.52
2023-02-14T07:20:19.319Z,73.37
2023-02-14T07:22:47.803Z,73.26
2023-02-14T07:25:16.191Z,73.36
2023-02-14T07:27:44.583Z,73.30
2023-02-14T07:30:13.759Z,73.01
2023-02-14T07:32:42.050Z,73.20
2023-02-14T07:35:10.635Z,72.95
2023-02-14T07:37:39.111Z,72.27
2023-02-14T07:40:14.368Z,72.36
2023-02-14T07:42:43.980Z,72.18
2023-02-14T07:45:22.075Z,71.95
2023-02-14T07:47:51.264Z,71.35
2023-02-14T07:50:20.572Z,70.88
2023-02-14T07:52:48.847Z,71.07
2023-02-14T07:55:17.124Z,71.13
2023-02-14T07:57:47.348Z,71.03
2023-02-14T08:00:15.847Z,70.76
2023-02-14T08:02:44.727Z,69.73
2023-02-14T08:05:13.272Z,69.18
2023-02-14T08:07:42.405Z,69.24
2023-02-14T08:10:12.907Z,68.86
2023-02-14T08:13:00.218Z,68.25
2023-02-14T08:15:48.109Z,67.89
2023-02-14T08:18:18.524Z,66.41
2023-02-14T08:20:51.519Z,66.52
2023-02-14T08:23:21.535Z,66.72
2023-02-14T08:25:50.222Z,67.06
2023-02-14T08:28:18.701Z,67.14
2023-02-14T08:30:47.497Z,66.82
2023-02-14T08:33:15.771Z,66.22
2023-02-14T08:35:44.047Z,65.82
2023-02-14T08:38:15.397Z,65.43
2023-02-14T08:40:43.778Z,65.25
2023-02-14T08:43:12.475Z,65.35
2023-02-14T08:47:45.579Z,65.77
2023-02-14T08:50:16.621Z,65.77
2023-02-14T08:52:45.009Z,65.27
2023-02-14T08:55:13.689Z,64.41
2023-02-14T08:57:43.226Z,63.38
2023-02-14T09:00:12.802Z,62.81
2023-02-14T09:02:43.549Z,62.97
2023-02-14T09:05:13.360Z,63.12
2023-02-14T09:07:41.734Z,62.80
2023-02-14T09:10:10.660Z,62.81
2023-02-14T09:12:41.681Z,62.44
2023-02-14T09:15:10.696Z,61.41
2023-02-14T09:17:39.268Z,60.96
2023-02-14T09:20:09.372Z,60.72
2023-02-14T09:22:37.891Z,60.76
2023-02-14T09:25:06.953Z,61.21
2023-02-14T09:27:36.569Z,61.11
2023-02-14T09:30:09.622Z,61.61
2023-02-14T09:32:39.484Z,61.38
2023-02-14T09:35:08.521Z,60.79
2023-02-14T09:37:55.586Z,59.99
2023-02-14T09:40:24.990Z,59.60
2023-02-14T09:43:02.334Z,59.58
2023-02-14T09:45:31.614Z,59.57
2023-02-14T09:48:04.681Z,58.52
2023-02-14T09:50:40.633Z,58.63
2023-02-14T09:53:33.301Z,57.75
2023-02-14T09:56:20.200Z,57.44
2023-02-14T09:59:19.003Z,57.57
2023-02-14T10:01:50.465Z,57.60
2023-02-14T10:04:40.144Z,57.21
2023-02-14T10:07:24.187Z,56.84
2023-02-14T10:09:56.449Z,56.77
2023-02-14T10:12:37.119Z,57.05
2023-02-14T10:15:13.688Z,57.62
2023-02-14T10:17:53.746Z,57.47
2023-02-14T10:20:24.593Z,55.44
2023-02-14T10:23:35.269Z,55.37
2023-02-14T10:26:05.958Z,56.00
2023-02-14T10:28:36.324Z,56.48
2023-02-14T10:31:27.776Z,57.00
2023-02-14T10:33:59.914Z,57.51
2023-02-14T10:36:34.743Z,57.10
2023-02-14T10:39:19.200Z,56.98
2023-02-14T10:42:11.035Z,57.23
2023-02-14T10:45:12.911Z,56.70
2023-02-14T10:47:57.663Z,55.78
2023-02-14T10:50:36.900Z,55.10
2023-02-14T10:53:29.454Z,54.31
2023-02-14T11:19:27.704Z,47.24
2023-02-14T11:21:57.710Z,46.86
2023-02-14T11:24:26.514Z,45.68
2023-02-14T11:26:59.525Z,45.75
2023-02-14T11:29:29.413Z,46.51
2023-02-14T11:31:58.059Z,47.63
2023-02-14T11:34:33.958Z,48.09
2023-02-14T11:37:26.094Z,48.43
2023-02-14T11:39:55.831Z,46.58
2023-02-14T11:42:40.373Z,45.66
2023-02-14T11:45:33.428Z,45.39
2023-02-14T11:48:36.576Z,45.64
2023-02-14T11:51:14.596Z,45.28
2023-02-14T11:53:55.002Z,45.50
2023-02-14T11:56:23.950Z,45.82
2023-02-14T11:59:00.965Z,46.01
2023-02-14T12:01:31.239Z,46.46
2023-02-14T12:04:05.538Z,47.52
2023-02-14T12:06:35.610Z,47.51
2023-02-14T12:09:22.322Z,46.60
2023-02-14T12:12:00.882Z,46.38
2023-02-14T12:14:31.294Z,46.56
2023-02-14T12:17:08.175Z,46.27
2023-02-14T12:19:36.863Z,46.43
2023-02-14T12:22:06.473Z,47.09
2023-02-14T12:24:38.552Z,46.65
2023-02-14T12:27:30.607Z,46.16
2023-02-14T12:30:19.567Z,46.60
2023-02-14T12:32:50.481Z,47.24
2023-02-14T12:35:40.771Z,47.29
2023-02-14T12:38:24.709Z,47.81
2023-02-14T12:41:18.893Z,48.49
2023-02-14T12:43:57.230Z,48.79
2023-02-14T12:46:44.032Z,48.51
2023-02-14T12:49:47.936Z,48.39
2023-02-14T12:52:44.683Z,48.59
2023-02-14T12:55:25.450Z,48.78
2023-02-14T12:58:11.781Z,48.92
2023-02-14T13:01:05.425Z,49.51
2023-02-14T13:03:39.643Z,49.81
2023-02-14T13:06:17.655Z,49.53
2023-02-14T13:09:05.708Z,49.55
2023-02-14T13:11:45.336Z,49.81
2023-02-14T13:14:37.165Z,50.18
2023-02-14T13:17:18.758Z,50.62
2023-02-14T13:19:56.041Z,50.68
2023-02-14T13:22:25.459Z,50.83
2023-02-14T13:25:31.819Z,50.85
2023-02-14T13:28:02.044Z,51.68
2023-02-14T13:30:41.436Z,52.04
2023-02-14T13:33:18.765Z,51.96
2023-02-14T13:35:47.188Z,52.46
2023-02-14T13:38:16.460Z,52.42
2023-02-14T13:40:45.951Z,52.28
2023-02-14T13:43:14.331Z,51.93
2023-02-14T13:45:53.956Z,51.94
2023-02-14T13:48:26.662Z,51.83
2023-02-14T13:51:03.333Z,51.10
2023-02-14T13:53:41.032Z,50.90
2023-02-14T13:56:12.393Z,51.15
2023-02-14T13:58:52.450Z,50.91
2023-02-14T14:01:26.954Z,51.01
2023-02-14T14:03:59.250Z,51.24
2023-02-14T14:06:29.376Z,51.08
2023-02-14T14:09:01.618Z,51.29
2023-02-14T14:11:33.583Z,51.21
2023-02-14T14:14:21.213Z,51.07
2023-02-14T14:16:59.180Z,51.90
2023-02-14T14:19:27.498Z,51.82
2023-02-14T14:22:14.520Z,51.72
2023-02-14T14:24:56.311Z,51.85
2023-02-14T14:27:33.804Z,52.11
2023-02-14T14:30:07.135Z,51.76
2023-02-14T14:32:39.180Z,51.70
2023-02-14T14:35:21.679Z,51.85
2023-02-14T14:37:54.979Z,51.78
2023-02-14T14:40:33.494Z,52.25
2023-02-14T14:43:21.943Z,52.34
2023-02-14T14:45:53.184Z,52.57
2023-02-14T14:48:42.767Z,53.13
2023-02-14T14:51:30.301Z,53.07
2023-02-14T14:54:01.212Z,53.19
2023-02-14T14:56:37.505Z,53.29
2023-02-14T14:59:19.620Z,53.53
2023-02-14T15:01:48.555Z,54.01
2023-02-14T15:04:33.772Z,54.18
2023-02-14T15:07:34.956Z,54.28
2023-02-14T15:10:03.566Z,54.25
2023-02-14T15:12:51.052Z,54.59
2023-02-14T15:15:19.537Z,54.54
2023-02-14T15:17:51.595Z,54.54
2023-02-14T15:20:21.819Z,54.41
2023-02-14T15:22:51.270Z,54.62
2023-02-14T15:25:27.690Z,54.40
2023-02-14T15:27:56.997Z,54.42
2023-02-14T15:30:30.998Z,54.14
2023-02-14T15:33:06.065Z,54.04
2023-02-14T15:35:43.027Z,54.45
2023-02-14T15:38:11.836Z,54.81
2023-02-14T15:40:40.604Z,55.19
2023-02-14T15:43:16.474Z,55.11
2023-02-14T15:45:46.510Z,55.39
2023-02-14T15:48:33.738Z,55.56
2023-02-14T15:51:02.705Z,55.77
2023-02-14T15:53:42.514Z,55.97
2023-02-14T15:56:22.299Z,56.07
2023-02-14T15:59:00.417Z,56.21
2023-02-14T16:01:30.994Z,56.57
2023-02-14T16:04:01.383Z,56.31
2023-02-14T16:06:43.873Z,56.44
2023-02-14T16:09:27.185Z,56.71
2023-02-14T16:11:58.357Z,56.37
2023-02-14T16:14:37.484Z,56.34
2023-02-14T16:17:14.357Z,56.54
2023-02-14T16:19:44.994Z,56.67
2023-02-14T16:22:24.242Z,56.47
2023-02-14T16:24:52.609Z,56.48
2023-02-14T16:27:23.750Z,56.47
2023-02-14T16:29:52.168Z,56.40
2023-02-14T16:32:21.823Z,56.43
2023-02-14T16:34:50.429Z,56.61
2023-02-14T16:37:36.322Z,56.45
2023-02-14T16:40:06.866Z,56.43
2023-02-14T16:42:37.198Z,56.37
2023-02-14T16:45:06.506Z,56.19
2023-02-14T16:47:35.233Z,56.41
2023-02-14T16:50:03.658Z,56.21
2023-02-14T16:52:32.239Z,56.27
2023-02-14T16:55:00.719Z,56.60
2023-02-14T16:57:30.994Z,56.70
2023-02-14T16:59:59.439Z,56.51
2023-02-14T17:02:28.762Z,56.54
2023-02-14T17:04:57.418Z,56.52
2023-02-14T17:07:25.799Z,56.89
2023-02-14T17:09:56.840Z,56.75
2023-02-14T17:12:27.782Z,56.55
2023-02-14T17:15:00.264Z,56.96
2023-02-14T17:17:29.867Z,56.74
2023-02-14T17:19:58.763Z,56.65
2023-02-14T17:22:27.264Z,56.27
2023-02-14T17:24:57.060Z,56.04
2023-02-14T17:27:26.055Z,56.01
2023-02-14T17:29:54.572Z,55.45
2023-02-14T17:32:23.479Z,55.65
2023-02-14T17:34:52.479Z,55.66
2023-02-14T17:37:20.910Z,56.06
2023-02-14T17:39:49.394Z,56.24
2023-02-14T17:42:17.977Z,56.20
2023-02-14T17:44:46.558Z,56.52
2023-02-14T17:47:16.476Z,56.93
2023-02-14T17:49:47.726Z,57.23
2023-02-14T17:52:16.411Z,57.88
2023-02-14T17:54:44.797Z,57.93
2023-02-14T17:57:13.176Z,57.90
2023-02-14T17:59:47.086Z,57.50
2023-02-14T18:02:15.473Z,57.82
2023-02-14T18:04:43.985Z,57.88
2023-02-14T18:07:14.071Z,58.14
2023-02-14T18:09:43.479Z,58.19
2023-02-14T18:12:15.111Z,58.56
2023-02-14T18:14:44.538Z,58.78
2023-02-14T18:17:13.861Z,58.69
2023-02-14T18:19:42.340Z,58.82
2023-02-14T18:22:10.995Z,58.98
2023-02-14T18:24:40.621Z,58.99
2023-02-14T18:27:09.656Z,58.88
2023-02-14T18:29:39.536Z,58.92
2023-02-14T18:32:08.248Z,58.97
2023-02-14T18:34:38.336Z,58.93
2023-02-14T18:37:06.717Z,58.97
2023-02-14T18:39:40.427Z,58.94
2023-02-14T18:42:08.912Z,59.04
2023-02-14T18:44:37.395Z,59.02
2023-02-14T18:47:07.513Z,58.91
2023-02-14T18:49:35.891Z,59.11
2023-02-14T18:52:05.310Z,59.23
2023-02-14T18:54:33.775Z,59.36
2023-02-14T18:57:02.269Z,59.65
2023-02-14T18:59:30.844Z,59.73
2023-02-14T19:01:59.251Z,59.91
2023-02-14T19:04:29.244Z,59.96
2023-02-14T19:06:59.675Z,60.05
2023-02-14T19:09:29.701Z,60.37
2023-02-14T19:12:03.335Z,60.40
2023-02-14T19:14:31.987Z,60.18
2023-02-14T19:17:00.525Z,60.26
2023-02-14T19:19:29.259Z,60.27
2023-02-14T19:22:01.043Z,59.96
2023-02-14T19:24:29.611Z,60.00
2023-02-14T19:26:58.402Z,59.91
2023-02-14T19:29:27.194Z,60.02
2023-02-14T19:31:56.384Z,59.85
2023-02-14T19:34:32.142Z,59.72
2023-02-14T19:37:01.446Z,59.64
2023-02-14T19:39:30.863Z,59.34
2023-02-14T19:41:59.766Z,59.62
2023-02-14T19:44:31.423Z,59.51
2023-02-14T19:47:04.183Z,59.31
2023-02-14T19:49:38.813Z,59.33
2023-02-14T19:52:14.130Z,59.22
2023-02-14T19:54:45.813Z,59.01
2023-02-14T19:57:14.603Z,59.02
2023-02-14T19:59:42.987Z,59.05
2023-02-14T20:02:14.181Z,58.81
2023-02-14T20:04:42.830Z,58.68
2023-02-14T20:07:11.713Z,58.53
2023-02-14T20:09:40.209Z,58.59
2023-02-14T20:12:09.906Z,58.57
2023-02-14T20:14:50.923Z,58.18
2023-02-14T20:17:21.722Z,58.08
2023-02-14T20:19:50.919Z,58.20
2023-02-14T20:22:20.530Z,58.30
2023-02-14T20:24:49.116Z,58.36
2023-02-14T20:27:17.803Z,58.41
2023-02-14T20:29:46.489Z,58.22
2023-02-14T20:32:16.224Z,58.46
2023-02-14T20:34:45.605Z,58.52
2023-02-14T20:37:14.293Z,58.56
2023-02-14T20:39:42.675Z,58.62
2023-02-14T20:42:11.362Z,58.58
2023-02-14T20:44:41.793Z,58.73
2023-02-14T20:47:11.324Z,59.15
2023-02-14T20:49:40.297Z,58.92
2023-02-14T20:52:08.572Z,59.07
2023-02-14T20:54:39.519Z,59.13
2023-02-14T20:57:07.896Z,59.18
2023-02-14T20:59:37.619Z,59.55
2023-02-14T21:02:07.725Z,59.91
2023-02-14T21:04:36.110Z,59.92
2023-02-14T21:07:09.101Z,60.24
2023-02-14T21:09:40.343Z,60.55
2023-02-14T21:12:09.032Z,60.65
2023-02-14T21:14:37.719Z,60.87
2023-02-14T21:17:06.310Z,61.01
2023-02-14T21:19:34.692Z,61.08
2023-02-14T21:22:06.449Z,60.71
2023-02-14T21:24:35.033Z,60.93
2023-02-14T21:27:03.377Z,60.56
2023-02-14T21:29:32.716Z,60.63
2023-02-14T21:32:03.410Z,60.55
2023-02-14T21:34:33.579Z,60.68
2023-02-14T21:37:01.958Z,60.99
2023-02-14T21:39:35.970Z,60.80
2023-02-14T21:42:05.620Z,60.81
2023-02-14T21:44:57.362Z,60.91
2023-02-14T21:47:26.509Z,60.92
2023-02-14T21:50:13.527Z,60.78
2023-02-14T21:52:42.119Z,60.98
2023-02-14T21:55:10.493Z,61.03
2023-02-14T21:57:38.979Z,60.90
2023-02-14T22:00:08.533Z,60.86
2023-02-14T22:02:39.992Z,61.01
2023-02-14T22:05:08.626Z,61.12
2023-02-14T22:07:37.213Z,61.07
2023-02-14T22:10:06.622Z,60.96
2023-02-14T22:12:35.405Z,61.04
2023-02-14T22:15:05.422Z,60.89
2023-02-14T22:17:36.057Z,61.01
2023-02-14T22:20:06.299Z,60.68
2023-02-14T22:22:35.385Z,60.90
2023-02-14T22:25:03.771Z,60.90
2023-02-14T22:27:32.555Z,60.64
2023-02-14T22:30:03.090Z,60.60
2023-02-14T22:32:31.666Z,60.56
2023-02-14T22:35:00.047Z,60.48
2023-02-14T22:37:28.435Z,60.18
2023-02-14T22:39:56.931Z,60.41
2023-02-14T22:42:25.505Z,60.31
2023-02-14T22:44:53.877Z,60.26
2023-02-14T22:47:22.258Z,60.33
2023-02-14T22:49:50.639Z,60.18
2023-02-14T22:52:19.408Z,60.07
2023-02-14T22:54:48.526Z,60.07
2023-02-14T22:57:18.031Z,60.10
2023-02-14T22:59:48.464Z,59.85
2023-02-14T23:02:16.842Z,59.84
2023-02-14T23:04:45.650Z,59.83
2023-02-14T23:07:14.116Z,59.73
2023-02-14T23:09:44.854Z,59.32
2023-02-14T23:12:36.992Z,59.35
2023-02-14T23:15:25.240Z,59.23
2023-02-14T23:18:12.972Z,59.11
2023-02-14T23:21:07.873Z,58.76
2023-02-14T23:23:36.563Z,58.44
2023-02-14T23:26:51.334Z,57.71
2023-02-14T23:29:19.711Z,57.32
2023-02-14T23:31:48.299Z,56.46
2023-02-14T23:34:18.418Z,56.27
2023-02-14T23:36:47.315Z,56.22
2023-02-14T23:39:15.795Z,56.03
2023-02-14T23:41:53.188Z,55.81
2023-02-14T23:44:23.751Z,55.57
2023-02-14T23:46:53.656Z,55.47
2023-02-14T23:49:21.953Z,55.34
2023-02-14T23:51:51.128Z,55.48
2023-02-14T23:54:19.911Z,55.43
2023-02-14T23:56:48.803Z,55.24
2023-02-14T23:59:17.446Z,55.29
